Bigfork, Minnesota
Current Conditions -  °F | °C
As of 3:53 AM on Tuesday 21 Oct 2014 (Local Time) from KFOZ Reporting Station
Overcast Overcast  
Wind Chill: 40°   Ceiling: 2100
Heat Index: 43°   Visibility: 10mi
Dew Point: 36°   Wind: 5mph
Humidity: 76%   Direction: 110°ESE
Pressure: 30.16"   Gusts: NA
Location:  47.74°N, 93.65°W
Report Text: KFOZ 210853Z AUTO 11004KT 10SM OVC021 06/02 A3016 RMK AO2
Loading
Personal Weather Stations






























Interactive Weather Map
Tropical Storm Tracking
New forecast layout! Learn more

10-Day Weather Forecast

Advertisements
Track Severe Weather on mobile